createdAt,value
2023-05-01T00:04:33.179Z,34.13
2023-05-01T00:07:14.075Z,34.45
2023-05-01T00:09:49.459Z,33.60
2023-05-01T00:12:27.374Z,39.90
2023-05-01T00:15:02.576Z,34.95
2023-05-01T00:17:37.778Z,32.30
2023-05-01T00:20:15.163Z,29.93
2023-05-01T00:23:03.392Z,35.40
2023-05-01T00:25:42.581Z,32.00
2023-05-01T00:28:17.731Z,31.50
2023-05-01T00:30:53.146Z,31.87
2023-05-01T00:33:30.424Z,29.95
2023-05-01T00:36:09.528Z,21.08
2023-05-01T00:38:58.325Z,29.83
2023-05-01T00:41:37.213Z,25.27
2023-05-01T00:44:14.920Z,25.90
2023-05-01T00:46:51.385Z,33.15
2023-05-01T00:49:26.152Z,31.77
2023-05-01T00:52:04.388Z,32.55
2023-05-01T00:54:42.288Z,26.45
2023-05-01T00:57:16.327Z,33.55
2023-05-01T00:59:52.273Z,35.53
2023-05-01T01:02:30.039Z,29.50
2023-05-01T01:05:08.549Z,28.40
2023-05-01T01:07:45.729Z,32.10
2023-05-01T01:10:38.155Z,25.42
2023-05-01T01:13:16.753Z,37.90
2023-05-01T01:15:54.558Z,31.48
2023-05-01T01:18:32.815Z,27.87
2023-05-01T01:21:13.013Z,25.02
2023-05-01T01:24:24.190Z,24.60
2023-05-01T01:27:17.664Z,24.90
2023-05-01T01:30:07.156Z,34.00
2023-05-01T01:33:19.125Z,29.77
2023-05-01T01:36:00.641Z,27.50
2023-05-01T01:38:40.478Z,34.85
2023-05-01T01:41:17.220Z,41.45
2023-05-01T01:43:58.600Z,32.28
2023-05-01T01:46:40.215Z,27.50
2023-05-01T01:49:14.561Z,33.85
2023-05-01T01:51:54.618Z,36.45
2023-05-01T01:54:43.084Z,32.00
2023-05-01T01:57:22.474Z,31.58
2023-05-01T02:00:01.620Z,27.83
2023-05-01T02:02:39.906Z,33.25
2023-05-01T02:05:17.828Z,28.90
2023-05-01T02:07:56.092Z,29.02
2023-05-01T02:10:31.162Z,27.35
2023-05-01T02:13:06.232Z,23.30
2023-05-01T02:15:43.702Z,27.70
2023-05-01T02:18:17.996Z,32.13
2023-05-01T02:20:53.095Z,30.37
2023-05-01T02:23:31.274Z,28.47
2023-05-01T02:26:07.668Z,25.33
2023-05-01T02:28:41.664Z,27.67
2023-05-01T02:31:17.076Z,27.35
2023-05-01T02:33:52.117Z,27.05
2023-05-01T02:36:28.421Z,26.00
2023-05-01T02:39:08.146Z,20.65
2023-05-01T02:41:43.904Z,21.63
2023-05-01T02:44:18.878Z,22.65
2023-05-01T02:46:54.712Z,23.75
2023-05-01T02:49:30.698Z,24.52
2023-05-01T02:54:55.303Z,21.63
2023-05-01T02:57:30.945Z,21.00
2023-05-01T03:00:10.075Z,24.30
2023-05-01T03:02:46.141Z,26.60
2023-05-01T03:05:22.211Z,35.38
2023-05-01T03:13:14.137Z,52.97
2023-05-01T03:15:49.156Z,46.73
2023-05-01T03:18:26.813Z,47.78
2023-05-01T03:21:27.661Z,29.73
2023-05-01T03:24:06.766Z,28.27
2023-05-01T03:26:44.389Z,23.02
2023-05-01T03:29:21.730Z,19.98
2023-05-01T03:31:58.025Z,19.67
2023-05-01T03:37:12.648Z,18.15
2023-05-01T03:39:47.971Z,19.75
2023-05-01T03:42:48.006Z,21.27
2023-05-01T03:45:28.590Z,21.10
2023-05-01T03:48:06.776Z,18.30
2023-05-01T03:50:45.928Z,19.42
2023-05-01T03:53:20.178Z,18.55
2023-05-01T03:55:59.013Z,21.23
2023-05-01T03:58:38.452Z,19.20
2023-05-01T04:01:14.048Z,17.30
2023-05-01T04:03:54.907Z,19.20
2023-05-01T04:06:32.916Z,18.90
2023-05-01T04:09:09.338Z,16.05
2023-05-01T04:11:45.650Z,15.60
2023-05-01T04:14:25.064Z,20.15
2023-05-01T04:17:03.916Z,17.40
2023-05-01T04:19:45.358Z,17.77
2023-05-01T04:22:20.697Z,18.13
2023-05-01T04:24:56.849Z,17.73
2023-05-01T04:27:32.484Z,17.02
2023-05-01T04:30:13.784Z,18.27
2023-05-01T04:32:50.436Z,14.38
2023-05-01T04:35:28.895Z,19.10
2023-05-01T04:38:03.031Z,16.95
2023-05-01T04:40:41.411Z,17.17
2023-05-01T04:43:17.188Z,14.88
2023-05-01T04:45:56.771Z,17.43
2023-05-01T04:48:32.328Z,20.17
2023-05-01T04:51:09.445Z,15.60
2023-05-01T04:53:45.048Z,14.98
2023-05-01T04:56:34.499Z,12.90
2023-05-01T04:59:09.994Z,12.98
2023-05-01T05:01:48.228Z,11.93
2023-05-01T05:04:25.954Z,15.48
2023-05-01T05:07:03.495Z,15.25
2023-05-01T05:09:59.185Z,12.35
2023-05-01T05:12:39.946Z,14.63
2023-05-01T05:15:16.763Z,15.40
2023-05-01T05:17:56.571Z,13.03
2023-05-01T05:20:34.689Z,14.45
2023-05-01T05:23:10.265Z,15.52
2023-05-01T05:25:46.778Z,19.33
2023-05-01T05:28:24.075Z,15.68
2023-05-01T05:30:59.668Z,16.80
2023-05-01T05:33:39.339Z,16.10
2023-05-01T05:36:17.266Z,16.77
2023-05-01T05:38:53.353Z,15.30
2023-05-01T05:41:30.341Z,18.23
2023-05-01T05:44:11.222Z,18.45
2023-05-01T05:46:48.172Z,16.37
2023-05-01T05:49:39.641Z,20.27
2023-05-01T05:52:15.782Z,16.23
2023-05-01T05:54:53.260Z,19.25
2023-05-01T05:57:29.464Z,19.63
2023-05-01T06:00:09.701Z,18.83
2023-05-01T06:02:50.180Z,16.73
2023-05-01T06:05:30.343Z,16.20
2023-05-01T06:08:10.685Z,15.65
2023-05-01T06:10:48.423Z,19.23
2023-05-01T06:13:26.270Z,18.73
2023-05-01T06:16:02.111Z,17.83
2023-05-01T06:18:37.616Z,15.43
2023-05-01T06:21:17.004Z,18.45
2023-05-01T06:23:57.378Z,15.15
2023-05-01T06:26:39.772Z,15.80
2023-05-01T06:31:51.393Z,15.38
2023-05-01T06:34:26.831Z,15.35
2023-05-01T06:37:08.604Z,17.30
2023-05-01T06:39:45.804Z,14.57
2023-05-01T06:42:21.963Z,12.32
2023-05-01T06:44:59.066Z,10.18
2023-05-01T06:47:38.849Z,13.45
2023-05-01T06:50:14.351Z,14.70
2023-05-01T06:52:54.208Z,12.73
2023-05-01T06:55:32.400Z,14.57
2023-05-01T06:58:22.794Z,11.80
2023-05-01T07:01:00.974Z,11.13
2023-05-01T07:03:36.141Z,12.40
2023-05-01T07:06:16.701Z,10.90
2023-05-01T07:08:52.390Z,12.13
2023-05-01T07:11:31.605Z,9.13
2023-05-01T07:14:09.087Z,11.90
2023-05-01T07:16:45.928Z,10.73
2023-05-01T07:19:22.524Z,11.70
2023-05-01T07:22:02.899Z,10.43
2023-05-01T07:24:39.773Z,9.15
2023-05-01T07:27:19.239Z,9.18
2023-05-01T07:29:58.318Z,9.80
2023-05-01T07:32:33.585Z,9.60
2023-05-01T07:35:11.812Z,9.27
2023-05-01T07:37:51.987Z,11.25
2023-05-01T07:40:28.310Z,11.00
2023-05-01T07:43:12.452Z,10.35
2023-05-01T07:45:49.668Z,10.77
2023-05-01T07:48:27.243Z,12.15
2023-05-01T07:51:05.778Z,9.60
2023-05-01T07:53:42.678Z,12.37
2023-05-01T07:56:20.179Z,8.98
2023-05-01T07:58:55.219Z,10.73
2023-05-01T08:01:36.395Z,12.17
2023-05-01T08:04:12.014Z,10.13
2023-05-01T08:06:48.700Z,9.60
2023-05-01T08:09:27.557Z,8.70
2023-05-01T08:12:04.192Z,6.97
2023-05-01T08:14:42.433Z,7.68
2023-05-01T08:17:18.291Z,8.88
2023-05-01T08:19:59.608Z,6.80
2023-05-01T08:22:35.586Z,7.22
2023-05-01T08:27:57.148Z,10.85
2023-05-01T08:30:33.905Z,8.13
2023-05-01T08:33:10.106Z,10.65
2023-05-01T08:35:52.863Z,8.23
2023-05-01T08:38:29.594Z,8.10
2023-05-01T08:41:09.077Z,12.05
2023-05-01T08:43:48.237Z,10.33
2023-05-01T08:46:26.633Z,8.45
2023-05-01T08:49:03.325Z,6.05
2023-05-01T08:51:45.131Z,10.52
2023-05-01T08:54:23.229Z,9.55
2023-05-01T08:56:59.354Z,7.60
2023-05-01T08:59:39.124Z,8.30
2023-05-01T09:02:19.503Z,7.25
2023-05-01T09:04:54.962Z,8.40
2023-05-01T09:07:33.812Z,8.75
2023-05-01T09:10:26.006Z,9.37
2023-05-01T09:13:11.552Z,6.13
2023-05-01T09:15:57.294Z,9.47
2023-05-01T09:18:38.310Z,8.75
2023-05-01T09:21:20.985Z,9.27
2023-05-01T09:24:06.677Z,8.63
2023-05-01T09:26:47.376Z,9.65
2023-05-01T09:29:49.153Z,7.85
2023-05-01T09:32:32.339Z,11.18
2023-05-01T09:35:28.166Z,9.33
2023-05-01T09:38:06.953Z,6.37
2023-05-01T09:41:08.702Z,8.60
2023-05-01T09:43:54.582Z,8.70
2023-05-01T09:46:41.821Z,8.13
2023-05-01T09:49:20.623Z,7.75
2023-05-01T09:52:14.957Z,7.70
2023-05-01T09:55:15.152Z,8.23
2023-05-01T09:57:57.930Z,9.80
2023-05-01T10:00:49.779Z,8.32
2023-05-01T10:03:34.671Z,7.43
2023-05-01T10:09:18.031Z,7.57
2023-05-01T10:12:01.856Z,7.80
2023-05-01T10:14:58.424Z,7.05
2023-05-01T10:17:42.686Z,8.60
2023-05-01T10:20:19.421Z,8.20
2023-05-01T10:23:01.748Z,8.77
2023-05-01T10:25:43.169Z,6.95
2023-05-01T10:28:23.565Z,7.88
2023-05-01T10:31:11.718Z,7.97
2023-05-01T10:33:50.718Z,8.57
2023-05-01T10:36:34.888Z,11.70
2023-05-01T10:39:30.640Z,7.15
2023-05-01T10:42:24.542Z,6.07
2023-05-01T10:45:22.456Z,6.82
2023-05-01T10:48:06.517Z,8.23
2023-05-01T10:51:27.829Z,6.47
2023-05-01T10:54:35.106Z,10.10
2023-05-01T10:57:11.174Z,18.52
2023-05-01T11:02:38.453Z,15.95
2023-05-01T11:05:32.084Z,8.43
2023-05-01T11:08:38.712Z,5.72
2023-05-01T11:11:13.937Z,6.18
2023-05-01T11:14:03.713Z,8.43
2023-05-01T11:16:50.505Z,6.38
2023-05-01T11:20:07.579Z,7.18
2023-05-01T11:22:57.407Z,5.95
2023-05-01T11:25:39.480Z,5.32
2023-05-01T11:28:21.005Z,7.88
2023-05-01T11:30:59.000Z,5.75
2023-05-01T11:33:41.856Z,5.88
2023-05-01T11:36:33.993Z,6.47
2023-05-01T11:39:20.022Z,5.17
2023-05-01T11:42:10.250Z,6.17
2023-05-01T11:44:48.182Z,5.27
2023-05-01T11:47:31.093Z,6.87
2023-05-01T11:50:17.773Z,5.00
2023-05-01T11:52:56.344Z,6.15
2023-05-01T11:55:38.962Z,5.25
2023-05-01T11:58:19.193Z,6.45
2023-05-01T12:00:58.537Z,5.80
2023-05-01T12:03:46.978Z,4.10
2023-05-01T12:06:27.185Z,3.58
2023-05-01T12:09:04.465Z,4.45
2023-05-01T12:11:47.650Z,7.25
2023-05-01T12:14:26.497Z,5.27
2023-05-01T12:17:04.886Z,5.00
2023-05-01T12:19:54.877Z,5.45
2023-05-01T12:22:33.184Z,5.00
2023-05-01T12:25:14.991Z,7.47
2023-05-01T12:28:00.986Z,6.18
2023-05-01T12:30:46.527Z,5.50
2023-05-01T12:33:28.096Z,4.65
2023-05-01T12:36:25.712Z,2.88
2023-05-01T12:39:05.923Z,5.07
2023-05-01T12:41:49.044Z,4.75
2023-05-01T12:44:36.860Z,3.53
2023-05-01T12:47:18.604Z,3.92
2023-05-01T12:50:05.625Z,5.78
2023-05-01T12:52:46.498Z,6.03
2023-05-01T12:55:22.941Z,5.15
2023-05-01T12:58:01.717Z,5.32
2023-05-01T13:00:49.862Z,5.85
2023-05-01T13:03:28.418Z,5.28
2023-05-01T13:06:06.533Z,8.38
2023-05-01T13:08:45.582Z,7.57
2023-05-01T13:11:22.228Z,5.10
2023-05-01T13:14:01.457Z,5.30
2023-05-01T13:16:51.201Z,4.20
2023-05-01T13:22:05.295Z,8.18
2023-05-01T13:24:39.414Z,6.63
2023-05-01T13:27:16.832Z,5.57
2023-05-01T13:30:04.838Z,6.95
2023-05-01T13:32:45.298Z,7.07
2023-05-01T13:35:40.302Z,6.72
2023-05-01T13:38:24.122Z,5.63
2023-05-01T13:41:03.929Z,7.93
2023-05-01T13:43:40.511Z,5.43
2023-05-01T13:46:23.448Z,7.60
2023-05-01T13:49:02.978Z,6.60
2023-05-01T13:51:47.457Z,6.32
2023-05-01T13:54:34.709Z,8.82
2023-05-01T13:57:13.380Z,6.85
2023-05-01T13:59:50.199Z,5.88
2023-05-01T14:02:30.481Z,7.95
2023-05-01T14:05:07.087Z,6.63
2023-05-01T14:08:07.922Z,7.28
2023-05-01T14:10:43.654Z,5.15
2023-05-01T14:13:26.415Z,6.87
2023-05-01T14:16:00.576Z,5.50
2023-05-01T14:18:41.484Z,4.85
2023-05-01T14:21:14.931Z,8.67
2023-05-01T14:23:58.846Z,5.38
2023-05-01T14:26:39.485Z,4.40
2023-05-01T14:29:20.810Z,5.63
2023-05-01T14:32:02.489Z,6.30
2023-05-01T14:34:46.450Z,4.35
2023-05-01T14:37:28.975Z,8.10
2023-05-01T14:40:17.068Z,3.80
2023-05-01T14:42:56.063Z,5.40
2023-05-01T14:45:34.893Z,6.70
2023-05-01T14:48:17.988Z,5.10
2023-05-01T14:50:55.246Z,4.80
2023-05-01T14:53:36.670Z,4.25
2023-05-01T14:56:29.680Z,5.80
2023-05-01T14:59:06.033Z,5.93
2023-05-01T15:01:44.903Z,5.13
2023-05-01T15:04:24.906Z,5.03
2023-05-01T15:07:16.846Z,5.65
2023-05-01T15:09:58.192Z,3.70
2023-05-01T15:12:49.714Z,4.17
2023-05-01T15:15:28.585Z,4.93
2023-05-01T15:18:06.927Z,5.20
2023-05-01T15:20:50.255Z,5.05
2023-05-01T15:23:28.308Z,7.07
2023-05-01T15:26:23.168Z,7.05
2023-05-01T15:28:57.149Z,4.63
2023-05-01T15:31:41.941Z,4.93
2023-05-01T15:34:24.136Z,5.07
2023-05-01T15:37:04.617Z,4.80
2023-05-01T15:39:44.505Z,2.95
2023-05-01T15:42:27.079Z,3.60
2023-05-01T15:45:06.015Z,4.35
2023-05-01T15:47:49.955Z,3.10
2023-05-01T15:50:27.873Z,4.80
2023-05-01T15:53:09.514Z,3.45
2023-05-01T15:55:43.232Z,3.20
2023-05-01T16:01:16.603Z,3.03
2023-05-01T16:07:02.897Z,5.50
2023-05-01T16:09:41.450Z,5.55
2023-05-01T16:12:23.231Z,2.72
2023-05-01T16:15:03.708Z,4.33
2023-05-01T16:17:46.770Z,4.90
2023-05-01T16:20:23.399Z,6.10
2023-05-01T16:23:07.510Z,5.13
2023-05-01T16:25:47.791Z,6.53
2023-05-01T16:28:25.867Z,3.95
2023-05-01T16:31:19.605Z,4.25
2023-05-01T16:34:04.253Z,5.18
2023-05-01T16:36:45.690Z,3.75
2023-05-01T16:39:39.564Z,5.23
2023-05-01T16:42:28.446Z,4.38
2023-05-01T16:45:08.797Z,4.65
2023-05-01T16:47:50.994Z,4.97
2023-05-01T16:50:28.455Z,6.50
2023-05-01T16:53:10.847Z,4.88
2023-05-01T16:56:03.382Z,5.53
2023-05-01T16:58:52.877Z,4.40
2023-05-01T17:01:44.457Z,5.25
2023-05-01T17:04:35.279Z,4.10
2023-05-01T17:10:28.697Z,7.03
2023-05-01T17:13:26.580Z,5.65
2023-05-01T17:16:10.223Z,3.78
2023-05-01T17:18:50.308Z,4.67
2023-05-01T17:21:34.337Z,5.68
2023-05-01T17:24:08.918Z,5.70
2023-05-01T17:26:53.323Z,5.30
2023-05-01T17:29:42.096Z,6.63
2023-05-01T17:32:35.827Z,7.53
2023-05-01T17:35:17.341Z,5.70
2023-05-01T17:37:59.250Z,7.32
2023-05-01T17:40:36.248Z,5.30
2023-05-01T17:43:28.848Z,7.03
2023-05-01T17:46:07.593Z,7.00
2023-05-01T17:48:58.341Z,3.27
2023-05-01T17:51:36.330Z,6.57
2023-05-01T17:54:12.564Z,4.35
2023-05-01T17:56:52.345Z,4.85
2023-05-01T17:59:34.014Z,4.82
2023-05-01T18:02:17.956Z,4.73
2023-05-01T18:05:17.161Z,6.07
2023-05-01T18:08:01.296Z,4.45
2023-05-01T18:10:38.577Z,4.10
2023-05-01T18:13:19.711Z,6.18
2023-05-01T18:15:55.760Z,4.15
2023-05-01T18:18:43.175Z,7.23
2023-05-01T18:24:21.775Z,8.52
2023-05-01T18:27:00.641Z,7.72
2023-05-01T18:29:38.497Z,32.38
2023-05-01T18:32:19.419Z,22.52
2023-05-01T18:35:00.498Z,10.32
2023-05-01T18:37:44.138Z,8.25
2023-05-01T18:40:21.812Z,10.30
2023-05-01T18:42:57.559Z,13.13
2023-05-01T18:45:37.705Z,8.55
2023-05-01T18:48:20.361Z,11.20
2023-05-01T18:51:08.356Z,11.43
2023-05-01T18:53:56.011Z,10.23
2023-05-01T18:56:39.634Z,10.95
2023-05-01T18:59:32.885Z,9.05
2023-05-01T19:02:10.356Z,7.70
2023-05-01T19:04:57.232Z,7.50
2023-05-01T19:07:36.637Z,10.05
2023-05-01T19:10:20.947Z,6.57
2023-05-01T19:13:01.320Z,6.23
2023-05-01T19:15:44.008Z,7.35
2023-05-01T19:18:23.483Z,6.25
2023-05-01T19:21:03.413Z,10.18
2023-05-01T19:23:44.598Z,7.63
2023-05-01T19:26:30.229Z,5.65
2023-05-01T19:29:09.507Z,10.77
2023-05-01T19:31:48.289Z,6.80
2023-05-01T19:34:31.023Z,8.30
2023-05-01T19:37:13.390Z,6.20
2023-05-01T19:39:55.466Z,6.63
2023-05-01T19:45:17.753Z,9.13
2023-05-01T19:50:39.468Z,10.80
2023-05-01T19:53:25.369Z,6.97
2023-05-01T19:56:08.836Z,6.63
2023-05-01T19:58:48.583Z,9.20
2023-05-01T20:01:31.921Z,8.23
2023-05-01T20:04:13.300Z,7.45
2023-05-01T20:07:05.303Z,6.75
2023-05-01T20:09:42.764Z,5.80
2023-05-01T20:12:19.741Z,4.97
2023-05-01T20:14:58.487Z,7.15
2023-05-01T20:17:54.753Z,9.05
2023-05-01T20:20:33.301Z,6.47
2023-05-01T20:23:17.128Z,6.68
2023-05-01T20:26:43.525Z,7.63
2023-05-01T20:29:24.764Z,3.83
2023-05-01T20:35:06.390Z,7.57
2023-05-01T20:37:49.921Z,5.00
2023-05-01T20:40:34.640Z,3.70
2023-05-01T20:43:22.452Z,3.50
2023-05-01T20:45:59.419Z,7.07
2023-05-01T20:48:49.009Z,5.35
2023-05-01T20:51:43.199Z,5.30
2023-05-01T20:54:22.973Z,5.47
2023-05-01T20:59:52.967Z,7.55
2023-05-01T21:02:34.913Z,5.85
2023-05-01T21:05:18.503Z,5.00
2023-05-01T21:08:19.746Z,4.57
2023-05-01T21:13:41.210Z,7.72
2023-05-01T21:16:21.444Z,4.57
2023-05-01T21:19:01.625Z,5.57
2023-05-01T21:21:44.649Z,4.95
2023-05-01T21:24:31.811Z,9.30
2023-05-01T21:27:12.825Z,7.97
2023-05-01T21:29:50.334Z,6.38
2023-05-01T21:32:27.961Z,7.78
2023-05-01T21:35:05.851Z,6.35
2023-05-01T21:37:47.783Z,6.32
2023-05-01T21:40:27.416Z,7.10
2023-05-01T21:43:07.313Z,7.90
2023-05-01T21:45:42.772Z,7.15
2023-05-01T21:48:23.775Z,6.03
2023-05-01T21:51:05.348Z,5.10
2023-05-01T21:53:44.860Z,4.72
2023-05-01T21:56:27.143Z,7.82
2023-05-01T21:59:08.235Z,6.68
2023-05-01T22:01:50.655Z,7.72
2023-05-01T22:04:32.238Z,7.43
2023-05-01T22:07:10.781Z,7.50
2023-05-01T22:09:51.434Z,9.05
2023-05-01T22:12:30.909Z,7.50
2023-05-01T22:15:12.544Z,8.13
2023-05-01T22:17:50.336Z,6.55
2023-05-01T22:20:30.194Z,8.35
2023-05-01T22:23:07.717Z,7.07
2023-05-01T22:25:50.331Z,7.78
2023-05-01T22:28:43.815Z,8.50
2023-05-01T22:31:23.988Z,9.70
2023-05-01T22:34:04.490Z,8.75
2023-05-01T22:36:48.024Z,8.23
2023-05-01T22:39:25.628Z,7.50
2023-05-01T22:42:14.715Z,8.32
2023-05-01T22:48:12.531Z,7.85
2023-05-01T22:50:54.497Z,10.57
2023-05-01T22:53:33.924Z,6.97
2023-05-01T22:56:14.785Z,10.80
2023-05-01T22:58:49.292Z,9.25
2023-05-01T23:01:34.111Z,9.40
2023-05-01T23:04:14.709Z,9.40
2023-05-01T23:07:02.967Z,8.85
2023-05-01T23:09:44.762Z,7.93
2023-05-01T23:12:23.712Z,9.38
2023-05-01T23:15:06.897Z,9.57
2023-05-01T23:18:01.720Z,7.70
2023-05-01T23:23:45.695Z,8.20
2023-05-01T23:26:33.024Z,10.30
2023-05-01T23:29:26.386Z,9.20
2023-05-01T23:32:16.185Z,10.77
2023-05-01T23:35:12.379Z,9.30
2023-05-01T23:37:52.346Z,7.68
2023-05-01T23:40:32.764Z,7.93
2023-05-01T23:43:15.514Z,8.20
2023-05-01T23:45:51.636Z,7.50
2023-05-01T23:48:29.108Z,7.80
2023-05-01T23:51:05.596Z,8.07
2023-05-01T23:53:42.027Z,7.68
2023-05-01T23:56:26.990Z,7.97
2023-05-01T23:59:03.725Z,9.65
